Toledo, OH (43601)

12:07 AM EST on February 12, 2016 (GMT -0500)
Broadway/Foraker | | Change Station
CLOSE
Current Station
Personal Weather Station
Location: Toledo, OH
Elevation: 620 ft
Nearby Weather Stations

Elev 620 ft 41.62 °N, 83.57 °W | Updated 9 minutes ago

Clear
Clear
16.0 °F
Feels Like 16 °F
N
2.2
Wind Variable Wind from SSW

Today
High -- | Low -- °F
--% Chance of Precip.
Yesterday
High -- | Low -- °F
Precip. -- in
Pressure 30.30 in
Visibility 10.0 miles
Clouds Scattered Clouds 4600 ft
Windchill 16 °F
Dew Point 10 °F
Humidity 76%
Rainfall in
Snow Depth Not available.
7:34 AM 6:03 PM
Waxing Crescent, 17% visible
METAR KTDZ 120453Z AUTO 22006KT 10SM SCT046 M10/M14 A3027 RMK AO2 SLP260 T11001144 410501111
Pressure 30.30 in
Visibility 10.0 miles
Clouds Scattered Clouds 4600 ft
Windchill 16 °F
Dew Point 10 °F
Humidity 76%
Rainfall in
Snow Depth Not available.
7:34 AM 6:03 PM
Waxing Crescent, 17% visible
METAR KTDZ 120453Z AUTO 22006KT 10SM SCT046 M10/M14 A3027 RMK AO2 SLP260 T11001144 410501111

10-Day Weather Forecast

Almanac

Astronomy

Feb. 12, 2016 Rise Set
Actual Time
Civil Twilight
Nautical Twilight
Astronomical Twilight
Moon
Length of Visible Light
Length of Day
Tomorrow will be .
, % of the Moon is Illuminated

Today's Extremes

State Highs State Lows

Community

WunderPhotos

Upload Photos

1,892,265 photos uploaded!

WunderBlog® & News

Nearby

Air Quality

  Air Quality AQ Index Pollutant
Not available.

Snow Depth

Station Depth Elevation

Earthquake Activity

City Distance Mag. Time & Date
Minimum magnitude displayed is 2.5.

Coastal Water Temperatures

Place Temperature

Stations

Nearby Weather Stations

Station Location Temp. Windchill Dew Point Humidity Wind Precip. Elev Updated Type
                   

Watches & Warnings

There are currently no watches in effect.